Time;durP1;ratioP1;P1;durP2;ratioP2;P2;SDS_P1;SDS_P2;PMS_P1;PMS_P2;Temp;Humidity;BMP_temperature;BMP_pressure;BME280_temperature;BME280_humidity;BME280_pressure;Samples;Min_cycle;Max_cycle;Signal;HPM_P1;HPM_P2
2023/12/07 00:02:19;;;;;;;37.50;22.80;;;22.50;38.40;;;;;;6130203;28;89658;-63
2023/12/07 00:05:20;;;;;;;36.60;23.85;;;22.50;38.50;;;;;;6131534;28;84064;-63
2023/12/07 00:08:20;;;;;;;35.92;23.05;;;22.50;38.60;;;;;;6129940;28;84608;-61
2023/12/07 00:11:21;;;;;;;39.30;24.85;;;22.50;38.60;;;;;;6136208;28;83960;-62
2023/12/07 00:14:21;;;;;;;37.63;23.08;;;22.50;39.00;;;;;;6138064;28;83763;-58
2023/12/07 00:17:22;;;;;;;35.15;22.55;;;22.50;38.40;;;;;;6136189;28;83783;-58
2023/12/07 00:20:22;;;;;;;37.88;24.65;;;22.50;38.80;;;;;;6129400;28;83604;-58
2023/12/07 00:23:23;;;;;;;38.83;25.75;;;22.50;38.50;;;;;;6133428;28;83817;-58
2023/12/07 00:26:24;;;;;;;36.80;22.02;;;22.50;38.20;;;;;;6137376;28;83332;-58
2023/12/07 00:29:24;;;;;;;37.92;24.42;;;22.50;38.50;;;;;;6135019;28;89767;-57
2023/12/07 00:32:25;;;;;;;37.38;24.27;;;22.50;38.70;;;;;;6130000;28;85170;-58
2023/12/07 00:35:28;;;;;;;38.65;25.35;;;22.50;38.70;;;;;;6135322;28;85364;-56
2023/12/07 00:38:29;;;;;;;41.75;26.42;;;22.50;38.20;;;;;;6133724;28;83846;-57
2023/12/07 00:41:29;;;;;;;39.50;24.85;;;22.50;38.50;;;;;;6136236;28;84010;-57
2023/12/07 00:44:30;;;;;;;38.90;24.38;;;22.50;38.10;;;;;;6124058;28;83746;-55
2023/12/07 00:47:30;;;;;;;36.53;23.50;;;22.40;38.60;;;;;;6136377;28;83819;-57
2023/12/07 00:50:31;;;;;;;37.45;24.40;;;22.50;38.70;;;;;;6135361;28;83669;-63
2023/12/07 00:53:31;;;;;;;38.83;25.25;;;22.40;38.10;;;;;;6127729;28;83838;-65
2023/12/07 00:56:32;;;;;;;40.53;25.98;;;22.40;38.10;;;;;;6135410;28;84040;-64
2023/12/07 00:59:33;;;;;;;38.58;24.77;;;22.40;38.80;;;;;;6135822;28;83967;-62
2023/12/07 01:02:34;;;;;;;40.65;25.30;;;22.40;38.40;;;;;;6132109;28;83962;-61
2023/12/07 01:05:34;;;;;;;39.17;25.40;;;22.40;38.10;;;;;;6125794;28;83441;-60
2023/12/07 01:08:35;;;;;;;40.95;25.52;;;22.40;38.20;;;;;;6135823;28;84082;-61
2023/12/07 01:11:35;;;;;;;39.15;24.20;;;22.40;38.10;;;;;;6136167;28;84040;-61
2023/12/07 01:14:36;;;;;;;39.63;25.65;;;22.40;38.20;;;;;;6133596;28;84993;-61
2023/12/07 01:17:37;;;;;;;42.13;25.27;;;22.40;38.40;;;;;;6136401;28;83505;-63
2023/12/07 01:20:38;;;;;;;38.88;24.58;;;22.40;38.30;;;;;;6133820;28;83782;-63
2023/12/07 01:23:38;;;;;;;37.80;24.55;;;22.40;38.50;;;;;;6126015;28;83804;-61
2023/12/07 01:26:39;;;;;;;42.67;25.52;;;22.40;38.30;;;;;;6123648;28;84574;-64
2023/12/07 01:29:39;;;;;;;41.03;25.05;;;22.40;38.40;;;;;;6139583;28;90002;-61
2023/12/07 01:32:40;;;;;;;42.72;26.20;;;22.40;38.50;;;;;;6147920;28;83343;-62
2023/12/07 01:35:40;;;;;;;39.90;25.55;;;22.40;38.30;;;;;;6139278;28;83707;-62
2023/12/07 01:38:41;;;;;;;36.55;24.73;;;22.40;38.60;;;;;;6135448;28;84029;-64
2023/12/07 01:41:41;;;;;;;43.28;27.45;;;22.40;38.80;;;;;;6133152;28;84404;-61
2023/12/07 01:44:42;;;;;;;42.30;24.45;;;22.40;38.60;;;;;;6132974;28;86261;-59
2023/12/07 01:47:42;;;;;;;39.45;25.60;;;22.40;38.70;;;;;;6133382;28;83984;-57
2023/12/07 01:50:43;;;;;;;42.67;25.67;;;22.30;38.70;;;;;;6134137;28;84292;-58
2023/12/07 01:53:43;;;;;;;44.00;26.33;;;22.40;38.50;;;;;;6123300;28;83225;-56
2023/12/07 01:56:44;;;;;;;45.88;26.20;;;22.30;38.60;;;;;;6135389;28;87481;-59
2023/12/07 01:59:44;;;;;;;43.20;26.25;;;22.30;38.40;;;;;;6134514;28;84405;-59
2023/12/07 02:02:45;;;;;;;36.65;22.25;;;22.30;38.70;;;;;;6131830;28;84404;-59
2023/12/07 02:05:45;;;;;;;37.20;25.00;;;22.30;39.30;;;;;;6133508;28;83588;-59
2023/12/07 02:08:46;;;;;;;36.45;23.17;;;22.30;39.00;;;;;;6122125;28;84554;-59
2023/12/07 02:11:46;;;;;;;38.22;23.70;;;22.30;39.40;;;;;;6133921;28;83886;-57
2023/12/07 02:14:47;;;;;;;34.45;21.23;;;22.40;39.50;;;;;;6133363;28;85753;-58
2023/12/07 02:17:48;;;;;;;34.47;22.38;;;22.40;40.10;;;;;;6133878;28;83720;-58
2023/12/07 02:20:48;;;;;;;35.50;22.50;;;22.40;39.50;;;;;;6133392;28;84582;-63
2023/12/07 02:23:49;;;;;;;38.30;23.52;;;22.40;39.70;;;;;;6125044;28;84362;-65
2023/12/07 02:26:49;;;;;;;34.45;20.73;;;22.40;39.70;;;;;;6134024;28;84045;-64
2023/12/07 02:29:50;;;;;;;36.47;23.52;;;22.40;40.30;;;;;;6129631;28;83669;-64
2023/12/07 02:32:50;;;;;;;32.10;20.77;;;22.40;39.90;;;;;;6125531;28;83691;-63
2023/12/07 02:35:51;;;;;;;36.15;23.60;;;22.40;40.30;;;;;;6144883;28;85876;-62
2023/12/07 02:38:51;;;;;;;36.42;22.63;;;22.40;40.10;;;;;;6139678;28;84231;-61
2023/12/07 02:41:53;;;;;;;37.90;22.40;;;22.40;40.10;;;;;;6143702;28;83154;-62
2023/12/07 02:44:53;;;;;;;36.58;22.60;;;22.40;40.00;;;;;;6142729;28;83352;-61
2023/12/07 02:47:54;;;;;;;34.05;20.63;;;22.40;39.80;;;;;;6148206;28;83125;-61
2023/12/07 02:50:54;;;;;;;33.75;22.40;;;22.40;40.10;;;;;;6147865;28;83547;-62
2023/12/07 02:53:55;;;;;;;38.22;23.48;;;22.40;40.00;;;;;;6145743;28;83391;-61
2023/12/07 02:56:55;;;;;;;39.90;23.40;;;22.40;40.00;;;;;;6131762;28;83804;-62
2023/12/07 02:59:56;;;;;;;35.92;21.30;;;22.40;39.50;;;;;;6171964;28;84126;-61
2023/12/07 03:02:56;;;;;;;42.50;24.13;;;22.40;39.40;;;;;;6173149;28;83514;-62
2023/12/07 03:05:57;;;;;;;36.97;23.70;;;22.40;39.50;;;;;;6149893;28;84966;-61
2023/12/07 03:08:57;;;;;;;35.80;23.00;;;22.40;38.90;;;;;;6143843;28;82969;-61
2023/12/07 03:11:58;;;;;;;36.67;23.63;;;22.40;39.20;;;;;;6148160;28;83062;-61
2023/12/07 03:14:58;;;;;;;36.15;24.00;;;22.40;38.50;;;;;;6140936;28;84813;-61
2023/12/07 03:17:58;;;;;;;37.88;23.58;;;22.40;38.80;;;;;;6169958;28;82938;-60
2023/12/07 03:20:59;;;;;;;37.58;24.10;;;22.40;38.90;;;;;;6147244;28;86847;-60
2023/12/07 03:23:59;;;;;;;39.08;23.55;;;22.40;38.80;;;;;;6144078;28;83143;-61
2023/12/07 03:27:00;;;;;;;37.63;22.92;;;22.40;39.10;;;;;;6146258;28;83175;-59
2023/12/07 03:30:00;;;;;;;41.42;24.42;;;22.40;38.80;;;;;;6141861;28;82982;-57
2023/12/07 03:33:01;;;;;;;38.92;24.55;;;22.40;39.80;;;;;;6143986;28;83363;-59
2023/12/07 03:36:02;;;;;;;34.55;22.02;;;22.40;39.20;;;;;;6147084;28;83337;-59
2023/12/07 03:39:04;;;;;;;36.45;23.27;;;22.40;39.10;;;;;;6137834;28;83455;-59
2023/12/07 03:42:05;;;;;;;39.03;24.08;;;22.40;39.10;;;;;;6142100;28;83419;-59
2023/12/07 03:45:05;;;;;;;36.28;23.27;;;22.40;39.20;;;;;;6148998;28;83217;-60
2023/12/07 03:48:06;;;;;;;37.78;23.10;;;22.30;38.90;;;;;;6147910;28;83053;-59
2023/12/07 03:51:06;;;;;;;35.45;23.83;;;22.30;38.70;;;;;;6147336;28;83722;-60
2023/12/07 03:54:07;;;;;;;38.25;24.38;;;22.30;39.00;;;;;;6143154;28;83644;-64
2023/12/07 03:57:07;;;;;;;39.78;23.65;;;22.30;38.70;;;;;;6146956;28;83399;-63
2023/12/07 04:00:08;;;;;;;36.50;23.00;;;22.30;39.00;;;;;;6144787;28;83041;-62
2023/12/07 04:03:08;;;;;;;37.17;23.70;;;22.30;39.30;;;;;;6144781;28;83349;-62
2023/12/07 04:06:09;;;;;;;42.53;25.52;;;22.30;38.70;;;;;;6145201;28;86265;-62
2023/12/07 04:09:09;;;;;;;40.58;23.70;;;22.30;38.80;;;;;;6168006;28;89834;-62
2023/12/07 04:12:10;;;;;;;35.08;23.30;;;22.30;38.50;;;;;;6167732;28;83302;-59
2023/12/07 04:15:10;;;;;;;43.45;24.67;;;22.30;38.40;;;;;;6168299;28;83751;-58
2023/12/07 04:18:11;;;;;;;36.95;23.63;;;22.30;38.40;;;;;;6165293;28;83517;-59
2023/12/07 04:21:11;;;;;;;39.35;24.58;;;22.40;38.10;;;;;;6168901;28;83689;-60
2023/12/07 04:24:12;;;;;;;38.38;24.58;;;22.40;38.20;;;;;;6163835;28;83263;-60
2023/12/07 04:27:12;;;;;;;42.60;24.08;;;22.50;37.80;;;;;;6168119;28;83438;-58
2023/12/07 04:30:13;;;;;;;35.55;23.52;;;22.50;37.70;;;;;;6166380;28;83539;-62
2023/12/07 04:33:13;;;;;;;39.10;23.55;;;22.50;37.60;;;;;;6174579;28;83145;-64
2023/12/07 04:36:14;;;;;;;34.85;23.00;;;22.50;37.50;;;;;;6172494;28;83011;-63
2023/12/07 04:39:14;;;;;;;39.45;22.98;;;22.60;37.60;;;;;;6165969;28;83431;-62
2023/12/07 04:42:15;;;;;;;37.72;23.08;;;22.60;37.60;;;;;;6169860;28;83333;-63
2023/12/07 04:45:15;;;;;;;37.05;22.75;;;22.60;37.50;;;;;;6172722;28;83763;-61
2023/12/07 04:48:16;;;;;;;41.55;22.98;;;22.70;37.80;;;;;;6173978;28;84100;-62
2023/12/07 04:51:16;;;;;;;40.35;24.17;;;22.70;37.60;;;;;;6172523;28;83444;-60
2023/12/07 04:54:17;;;;;;;41.80;24.45;;;22.70;37.20;;;;;;6161713;28;83685;-60
2023/12/07 04:57:17;;;;;;;43.55;23.48;;;22.80;37.20;;;;;;6170352;28;83225;-59
2023/12/07 05:00:18;;;;;;;41.58;23.55;;;22.80;37.50;;;;;;6176130;28;85741;-61
2023/12/07 05:03:18;;;;;;;43.08;21.98;;;22.80;37.80;;;;;;6174272;28;83543;-60
2023/12/07 05:06:19;;;;;;;37.83;22.58;;;22.80;37.70;;;;;;6167968;28;84688;-61
2023/12/07 05:09:20;;;;;;;40.38;22.77;;;22.80;37.80;;;;;;6167990;28;86702;-60
2023/12/07 05:12:21;;;;;;;37.13;22.90;;;22.80;38.60;;;;;;6161458;28;83366;-61
2023/12/07 05:15:21;;;;;;;39.30;22.20;;;22.80;38.90;;;;;;6170732;28;86357;-61
2023/12/07 05:18:21;;;;;;;35.63;22.50;;;22.80;38.60;;;;;;6159365;28;82934;-59
2023/12/07 05:21:22;;;;;;;36.00;21.52;;;22.80;38.80;;;;;;6168469;28;85088;-60
2023/12/07 05:24:22;;;;;;;38.45;21.85;;;22.90;39.10;;;;;;6170148;28;83728;-65
2023/12/07 05:27:23;;;;;;;40.88;22.55;;;22.90;38.90;;;;;;6168846;28;83582;-59
2023/12/07 05:30:23;;;;;;;38.85;23.15;;;22.90;38.70;;;;;;6164560;28;83924;-61
2023/12/07 05:33:24;;;;;;;38.25;22.08;;;22.80;38.60;;;;;;6169637;28;83774;-60
2023/12/07 05:36:26;;;;;;;40.60;22.60;;;22.90;38.90;;;;;;6168378;28;85668;-59
2023/12/07 05:39:26;;;;;;;35.53;21.65;;;22.80;38.60;;;;;;6159968;28;83385;-60
2023/12/07 05:42:27;;;;;;;38.45;23.52;;;22.80;38.90;;;;;;6168094;28;83127;-60
2023/12/07 05:45:27;;;;;;;37.75;22.60;;;22.70;38.30;;;;;;6172044;28;83219;-59
2023/12/07 05:48:28;;;;;;;35.83;22.67;;;22.70;37.90;;;;;;6171491;28;84859;-59
2023/12/07 05:51:28;;;;;;;40.53;24.80;;;22.70;37.70;;;;;;6170757;28;83455;-59
2023/12/07 05:54:29;;;;;;;42.05;25.38;;;22.70;37.60;;;;;;6166636;28;83322;-60
2023/12/07 05:57:30;;;;;;;42.92;25.77;;;22.60;37.40;;;;;;6169346;28;84657;-60
2023/12/07 06:00:31;;;;;;;42.90;24.77;;;22.60;37.30;;;;;;6170107;28;83147;-60
2023/12/07 06:03:32;;;;;;;38.78;25.38;;;22.60;37.40;;;;;;6171116;28;84175;-56
2023/12/07 06:06:32;;;;;;;38.63;25.05;;;22.60;37.10;;;;;;6165960;28;84654;-58
2023/12/07 06:09:34;;;;;;;45.85;27.52;;;22.50;37.00;;;;;;6168215;28;83507;-59
2023/12/07 06:12:34;;;;;;;42.03;25.88;;;22.50;37.00;;;;;;6170424;28;84359;-58
2023/12/07 06:15:35;;;;;;;43.10;26.58;;;22.50;37.10;;;;;;6172678;28;83209;-57
2023/12/07 06:18:37;;;;;;;44.38;27.50;;;22.50;37.00;;;;;;6171854;28;83156;-59
2023/12/07 06:21:38;;;;;;;41.92;26.33;;;22.50;36.90;;;;;;6171066;28;83428;-59
2023/12/07 06:24:38;;;;;;;43.55;26.70;;;22.50;36.90;;;;;;6168209;28;83503;-59
2023/12/07 06:27:39;;;;;;;45.22;28.02;;;22.40;36.80;;;;;;6172585;28;84525;-58
2023/12/07 06:30:39;;;;;;;45.78;28.92;;;22.40;36.70;;;;;;6172759;28;83233;-58
2023/12/07 06:33:40;;;;;;;45.33;28.35;;;22.50;36.60;;;;;;6170957;28;82964;-58
2023/12/07 06:36:40;;;;;;;50.58;29.15;;;22.40;37.00;;;;;;6172185;28;83602;-59
2023/12/07 06:39:41;;;;;;;51.22;30.80;;;22.40;36.60;;;;;;6165728;28;85924;-60
2023/12/07 06:42:41;;;;;;;50.83;30.35;;;22.40;36.50;;;;;;6166172;28;83700;-59
2023/12/07 06:45:43;;;;;;;50.90;30.55;;;22.40;36.50;;;;;;6173062;28;83683;-60
2023/12/07 06:48:43;;;;;;;50.50;30.60;;;22.40;36.90;;;;;;6170808;28;88371;-58
2023/12/07 06:51:44;;;;;;;50.20;31.10;;;22.30;36.50;;;;;;6169585;28;83469;-59
2023/12/07 06:54:44;;;;;;;52.22;31.23;;;22.30;36.20;;;;;;6171778;28;83392;-60
2023/12/07 06:57:45;;;;;;;50.80;30.75;;;22.30;36.40;;;;;;6171356;28;84011;-60
2023/12/07 07:00:45;;;;;;;48.72;29.63;;;22.30;36.40;;;;;;6169317;28;83990;-60
2023/12/07 07:03:46;;;;;;;49.58;32.67;;;22.20;36.40;;;;;;6170549;28;83787;-60
2023/12/07 07:06:47;;;;;;;50.72;31.45;;;22.20;36.20;;;;;;6160181;28;82909;-62
2023/12/07 07:09:47;;;;;;;48.88;28.98;;;22.20;36.60;;;;;;6171767;28;83301;-59
2023/12/07 07:12:47;;;;;;;46.80;28.13;;;22.30;36.50;;;;;;6170884;28;83301;-60
2023/12/07 07:15:48;;;;;;;48.55;29.35;;;22.20;36.90;;;;;;6173040;28;84097;-59
2023/12/07 07:18:49;;;;;;;55.58;31.08;;;22.20;36.60;;;;;;6171597;28;83519;-59
2023/12/07 07:21:49;;;;;;;47.88;30.02;;;22.20;36.60;;;;;;6162374;28;83091;-61
2023/12/07 07:24:50;;;;;;;45.47;28.13;;;22.20;36.60;;;;;;6173650;28;83237;-60
2023/12/07 07:27:50;;;;;;;45.78;29.00;;;22.20;36.60;;;;;;6174323;28;83435;-60
2023/12/07 07:30:51;;;;;;;47.22;28.17;;;22.20;36.60;;;;;;6171138;28;83537;-60
2023/12/07 07:33:52;;;;;;;47.17;28.35;;;22.20;36.60;;;;;;6173296;28;82975;-61
2023/12/07 07:36:52;;;;;;;43.63;27.98;;;22.20;36.50;;;;;;6168691;28;82941;-60
2023/12/07 07:39:53;;;;;;;44.72;28.30;;;22.20;36.60;;;;;;6173653;28;83282;-60
2023/12/07 07:42:53;;;;;;;48.25;26.73;;;22.20;37.00;;;;;;6167965;28;85438;-61
2023/12/07 07:45:54;;;;;;;47.50;27.88;;;22.20;36.40;;;;;;6173141;28;85135;-60
2023/12/07 07:48:54;;;;;;;47.13;27.63;;;22.20;36.40;;;;;;6170153;28;90044;-61
2023/12/07 07:51:55;;;;;;;44.50;27.23;;;22.20;36.40;;;;;;6170539;28;84667;-61
2023/12/07 07:54:55;;;;;;;41.35;25.95;;;22.20;36.50;;;;;;6172491;28;83256;-60
2023/12/07 07:57:56;;;;;;;42.58;26.17;;;22.20;36.50;;;;;;6173996;28;83221;-62
2023/12/07 08:00:56;;;;;;;42.75;27.77;;;22.20;36.50;;;;;;6165961;28;82787;-61
2023/12/07 08:03:57;;;;;;;42.97;26.60;;;22.20;36.30;;;;;;6163012;28;83531;-62
2023/12/07 08:06:57;;;;;;;40.67;24.95;;;22.20;36.50;;;;;;6176120;28;83202;-61
2023/12/07 08:09:58;;;;;;;41.75;25.80;;;22.20;36.30;;;;;;6177928;28;83316;-60
2023/12/07 08:12:58;;;;;;;44.08;27.75;;;22.30;36.30;;;;;;6176502;28;85711;-62
2023/12/07 08:15:59;;;;;;;38.72;24.33;;;22.30;36.20;;;;;;6173790;28;83351;-60
2023/12/07 08:18:59;;;;;;;44.13;25.48;;;22.30;36.50;;;;;;6174644;28;83049;-60
2023/12/07 08:22:00;;;;;;;40.38;24.67;;;22.30;36.50;;;;;;6175810;28;83516;-61
2023/12/07 08:25:00;;;;;;;38.42;23.98;;;22.30;36.20;;;;;;6176364;28;83397;-61
2023/12/07 08:28:01;;;;;;;42.20;26.40;;;22.30;36.20;;;;;;6176989;28;83177;-64
2023/12/07 08:31:01;;;;;;;35.50;23.10;;;22.30;36.10;;;;;;6170076;28;83219;-63
2023/12/07 08:34:02;;;;;;;39.08;24.25;;;22.20;36.30;;;;;;6173466;28;83347;-61
2023/12/07 08:37:03;;;;;;;41.38;25.20;;;22.20;36.30;;;;;;6176674;28;84850;-62
2023/12/07 08:40:03;;;;;;;40.65;25.23;;;22.30;36.30;;;;;;6176450;28;83702;-63
2023/12/07 08:43:04;;;;;;;41.65;26.30;;;22.30;36.20;;;;;;6171498;28;83446;-62
2023/12/07 08:46:07;;;;;;;39.35;23.48;;;22.30;36.00;;;;;;6175496;28;83013;-61
2023/12/07 08:49:07;;;;;;;41.13;25.58;;;22.30;36.00;;;;;;6174087;28;83205;-60
2023/12/07 08:52:08;;;;;;;40.40;25.75;;;22.30;35.90;;;;;;6174440;28;83220;-60
2023/12/07 08:55:08;;;;;;;39.15;24.50;;;22.20;36.00;;;;;;6175732;28;84519;-58
2023/12/07 08:58:10;;;;;;;38.70;25.00;;;22.20;36.00;;;;;;6175789;28;82936;-61
2023/12/07 09:01:11;;;;;;;41.63;26.02;;;22.20;36.00;;;;;;6174797;28;82875;-60
2023/12/07 09:04:12;;;;;;;46.83;26.13;;;22.20;36.00;;;;;;6171188;28;82729;-60
2023/12/07 09:07:15;;;;;;;41.90;25.15;;;22.20;36.00;;;;;;6174170;28;83527;-61
2023/12/07 09:10:16;;;;;;;41.67;24.52;;;22.20;36.00;;;;;;6176844;28;83223;-62
2023/12/07 09:13:16;;;;;;;43.15;24.40;;;22.20;36.00;;;;;;6176622;28;84363;-63
2023/12/07 09:16:17;;;;;;;41.83;25.48;;;22.20;35.90;;;;;;6170419;28;83288;-62
2023/12/07 09:19:17;;;;;;;43.25;25.55;;;22.20;35.90;;;;;;6174894;28;86739;-63
2023/12/07 09:22:18;;;;;;;36.72;21.75;;;22.20;35.70;;;;;;6173931;28;88249;-61
2023/12/07 09:25:19;;;;;;;36.47;23.48;;;22.20;35.90;;;;;;6175628;28;83140;-61
2023/12/07 09:28:19;;;;;;;40.28;24.23;;;22.20;35.90;;;;;;6176077;28;83417;-61
2023/12/07 09:31:20;;;;;;;35.95;21.85;;;22.20;35.90;;;;;;6168903;28;84909;-62
2023/12/07 09:34:20;;;;;;;34.67;21.98;;;22.20;36.00;;;;;;6174072;28;83700;-60
2023/12/07 09:37:21;;;;;;;38.28;23.98;;;22.30;36.10;;;;;;6175772;28;83334;-61
2023/12/07 09:40:22;;;;;;;40.55;23.17;;;22.30;35.90;;;;;;6173650;28;83261;-60
2023/12/07 09:43:22;;;;;;;42.33;25.42;;;22.30;35.80;;;;;;6170300;28;83184;-59
2023/12/07 09:46:23;;;;;;;36.85;22.13;;;22.30;35.80;;;;;;6172986;28;84010;-59
2023/12/07 09:49:23;;;;;;;44.28;25.25;;;22.20;35.90;;;;;;6175240;28;84453;-60
2023/12/07 09:52:24;;;;;;;41.45;25.85;;;22.30;35.90;;;;;;6175004;28;83336;-58
2023/12/07 09:55:27;;;;;;;41.60;26.17;;;22.30;35.70;;;;;;6169163;28;83113;-60
2023/12/07 09:58:28;;;;;;;41.92;25.55;;;22.30;35.80;;;;;;6175253;28;82954;-59
2023/12/07 10:01:29;;;;;;;43.45;26.35;;;22.30;35.70;;;;;;6172201;28;85086;-60
2023/12/07 10:04:29;;;;;;;40.70;23.98;;;22.30;35.70;;;;;;6171172;28;85377;-61
2023/12/07 10:07:30;;;;;;;41.92;24.83;;;22.20;35.70;;;;;;6174229;28;83220;-61
2023/12/07 10:10:30;;;;;;;43.45;25.65;;;22.30;35.80;;;;;;6172863;28;82996;-59
2023/12/07 10:13:31;;;;;;;39.53;25.50;;;22.20;35.70;;;;;;6170395;28;83167;-60
2023/12/07 10:16:35;;;;;;;37.03;23.35;;;22.30;35.80;;;;;;6169016;28;83730;-61
2023/12/07 10:19:35;;;;;;;41.65;26.50;;;22.30;35.70;;;;;;6170306;28;87556;-59
2023/12/07 10:22:36;;;;;;;34.58;20.20;;;22.30;35.70;;;;;;6172651;28;83816;-59
2023/12/07 10:25:36;;;;;;;43.90;25.42;;;22.20;35.80;;;;;;6175372;28;83247;-59
2023/12/07 10:28:37;;;;;;;40.53;23.58;;;22.30;35.90;;;;;;6164987;28;82943;-60
2023/12/07 10:31:37;;;;;;;41.03;24.42;;;22.30;35.80;;;;;;6167385;28;83198;-61
2023/12/07 10:34:38;;;;;;;43.30;25.35;;;22.30;35.70;;;;;;6170720;28;84516;-60
2023/12/07 10:37:38;;;;;;;40.30;25.42;;;22.20;35.50;;;;;;6173633;28;83860;-59
2023/12/07 10:40:39;;;;;;;45.00;25.92;;;22.30;35.50;;;;;;6173515;28;83373;-59
2023/12/07 10:43:40;;;;;;;42.38;27.13;;;22.30;35.60;;;;;;6160245;28;83497;-59
2023/12/07 10:46:41;;;;;;;45.28;27.13;;;22.30;35.90;;;;;;6172915;28;82769;-59
2023/12/07 10:49:41;;;;;;;36.78;24.40;;;22.30;35.70;;;;;;6170878;28;83002;-58
2023/12/07 10:52:43;;;;;;;38.20;23.95;;;22.40;35.70;;;;;;6173916;28;83291;-59
2023/12/07 10:55:43;;;;;;;41.60;23.15;;;22.40;35.80;;;;;;6174122;28;83317;-61
2023/12/07 10:58:44;;;;;;;37.95;22.67;;;22.40;35.70;;;;;;6171818;28;84595;-62
2023/12/07 11:01:45;;;;;;;36.72;22.67;;;22.40;35.80;;;;;;6172298;28;83399;-62
2023/12/07 11:04:45;;;;;;;35.42;21.88;;;22.50;35.60;;;;;;6170540;28;83138;-60
2023/12/07 11:07:46;;;;;;;34.38;19.88;;;22.50;35.70;;;;;;6174983;28;83116;-61
2023/12/07 11:10:47;;;;;;;36.80;22.00;;;22.60;35.80;;;;;;6174190;28;84288;-61
2023/12/07 11:13:47;;;;;;;35.17;20.60;;;22.60;35.80;;;;;;6169765;28;83057;-60
2023/12/07 11:16:48;;;;;;;33.58;20.67;;;22.60;35.80;;;;;;6170325;28;82867;-60
2023/12/07 11:19:48;;;;;;;28.98;19.20;;;22.60;35.70;;;;;;6173614;28;83328;-58
2023/12/07 11:22:48;;;;;;;32.05;20.42;;;22.60;35.80;;;;;;6164711;28;83024;-59
2023/12/07 11:25:50;;;;;;;34.47;20.77;;;22.70;35.70;;;;;;6172789;28;83338;-59
2023/12/07 11:28:50;;;;;;;32.92;21.13;;;22.70;35.70;;;;;;6167766;28;83166;-60
2023/12/07 11:31:51;;;;;;;32.22;20.25;;;22.70;35.60;;;;;;6158379;28;83018;-58
2023/12/07 11:34:51;;;;;;;36.20;20.75;;;22.70;35.70;;;;;;6171906;28;83315;-60
2023/12/07 11:37:52;;;;;;;33.88;20.55;;;22.70;36.30;;;;;;6168159;28;84326;-60
2023/12/07 11:40:52;;;;;;;33.65;20.73;;;22.70;35.70;;;;;;6177834;28;84012;-61
2023/12/07 11:43:55;;;;;;;33.05;20.00;;;22.70;35.70;;;;;;6174915;28;83161;-58
2023/12/07 11:46:56;;;;;;;31.33;19.98;;;22.70;35.60;;;;;;6176279;28;83354;-58
2023/12/07 11:49:56;;;;;;;32.72;19.73;;;22.70;35.50;;;;;;6182633;28;83006;-62
2023/12/07 11:52:57;;;;;;;37.50;20.80;;;22.70;35.50;;;;;;6181041;28;83055;-63
2023/12/07 11:55:57;;;;;;;34.30;21.02;;;22.80;35.50;;;;;;6178986;28;84555;-59
2023/12/07 11:58:59;;;;;;;34.78;20.27;;;22.80;35.40;;;;;;6178221;28;83068;-59
2023/12/07 12:02:00;;;;;;;33.05;20.30;;;22.80;35.50;;;;;;6180738;28;83038;-59
2023/12/07 12:05:00;;;;;;;35.63;21.92;;;22.80;35.60;;;;;;6181732;28;83284;-59
2023/12/07 12:08:01;;;;;;;32.50;20.48;;;22.80;35.90;;;;;;6181977;28;82780;-60
2023/12/07 12:11:01;;;;;;;34.00;20.30;;;22.80;36.00;;;;;;6177907;28;83427;-59
2023/12/07 12:14:02;;;;;;;32.88;19.98;;;22.80;36.80;;;;;;6182844;28;83667;-61
2023/12/07 12:17:02;;;;;;;32.47;19.15;;;22.80;36.10;;;;;;6177969;28;83201;-60
2023/12/07 12:20:03;;;;;;;36.55;20.50;;;22.80;36.20;;;;;;6181583;28;82839;-60
2023/12/07 12:23:04;;;;;;;32.35;19.67;;;22.80;36.20;;;;;;6177612;28;86199;-61
2023/12/07 12:26:04;;;;;;;31.10;19.70;;;22.80;36.10;;;;;;6176487;28;83253;-61
2023/12/07 12:29:05;;;;;;;30.15;19.42;;;22.80;36.10;;;;;;6176154;28;83595;-63
2023/12/07 12:32:05;;;;;;;32.63;20.77;;;22.80;36.10;;;;;;6174388;28;83391;-61
2023/12/07 12:35:06;;;;;;;33.13;20.73;;;22.80;35.90;;;;;;6181531;28;83792;-61
2023/12/07 12:38:07;;;;;;;34.15;19.83;;;22.80;36.30;;;;;;6181656;28;83469;-62
2023/12/07 12:41:08;;;;;;;33.80;19.88;;;22.90;36.50;;;;;;6170279;28;83818;-62
2023/12/07 12:44:08;;;;;;;39.03;21.25;;;22.90;36.60;;;;;;6173268;28;82971;-63
2023/12/07 12:47:10;;;;;;;31.90;19.65;;;22.90;37.10;;;;;;6172305;28;83470;-61
2023/12/07 12:50:10;;;;;;;33.45;20.42;;;22.90;36.50;;;;;;6176315;28;83619;-60
2023/12/07 12:53:11;;;;;;;33.42;19.80;;;22.90;36.50;;;;;;6176244;28;82999;-61
2023/12/07 12:56:11;;;;;;;29.67;19.55;;;22.90;36.40;;;;;;6168750;28;86226;-63
2023/12/07 12:59:12;;;;;;;33.17;19.30;;;23.00;36.50;;;;;;6157741;28;91804;-62
2023/12/07 13:02:12;;;;;;;36.10;21.42;;;22.90;36.40;;;;;;6165496;28;85544;-63
2023/12/07 13:05:13;;;;;;;32.47;18.75;;;23.00;36.50;;;;;;6172122;28;83156;-63
2023/12/07 13:08:17;;;;;;;33.55;20.25;;;23.00;36.50;;;;;;6171894;28;83113;-62
2023/12/07 13:11:17;;;;;;;34.10;19.95;;;23.00;36.60;;;;;;6175457;28;82814;-60
2023/12/07 13:14:18;;;;;;;31.48;18.77;;;23.00;37.40;;;;;;6175450;28;84150;-68
2023/12/07 13:17:18;;;;;;;31.33;18.45;;;23.00;36.90;;;;;;6175205;28;83042;-67
2023/12/07 13:20:19;;;;;;;29.05;18.08;;;23.00;37.00;;;;;;6173634;28;83633;-70
2023/12/07 13:23:20;;;;;;;35.15;21.63;;;23.00;37.50;;;;;;6169729;28;82765;-62
2023/12/07 13:26:23;;;;;;;33.08;21.60;;;23.00;37.70;;;;;;6175137;28;83141;-60
2023/12/07 13:29:23;;;;;;;34.72;21.40;;;23.00;38.50;;;;;;6168776;28;83009;-61
2023/12/07 13:32:24;;;;;;;30.85;19.60;;;23.10;38.50;;;;;;6174522;28;84714;-59
2023/12/07 13:35:24;;;;;;;33.85;20.23;;;23.10;38.30;;;;;;6171218;28;84429;-60
2023/12/07 13:38:25;;;;;;;30.50;19.33;;;23.10;37.80;;;;;;6166146;28;83306;-60
2023/12/07 13:41:25;;;;;;;27.40;17.45;;;23.10;37.80;;;;;;6166239;28;83403;-70
2023/12/07 13:44:26;;;;;;;31.85;20.08;;;23.10;37.80;;;;;;6159022;28;85703;-68
2023/12/07 13:47:31;;;;;;;33.55;19.63;;;23.10;37.80;;;;;;6172995;28;83010;-67
2023/12/07 13:50:31;;;;;;;27.33;18.52;;;23.20;37.70;;;;;;6173386;28;83172;-69
2023/12/07 13:53:32;;;;;;;31.15;18.13;;;23.20;37.40;;;;;;6174151;28;83358;-67
2023/12/07 13:56:32;;;;;;;34.08;20.42;;;23.10;37.30;;;;;;6173734;28;83713;-68
2023/12/07 13:59:33;;;;;;;29.85;18.75;;;23.10;37.20;;;;;;6174718;28;83108;-69
2023/12/07 14:02:33;;;;;;;34.75;19.80;;;23.10;37.20;;;;;;6173548;28;83359;-68
2023/12/07 14:05:34;;;;;;;31.17;18.88;;;23.10;37.10;;;;;;6170999;28;86221;-70
2023/12/07 14:08:34;;;;;;;34.95;20.70;;;23.10;37.40;;;;;;6172184;28;85180;-70
2023/12/07 14:11:35;;;;;;;34.38;20.77;;;23.10;37.20;;;;;;6171461;28;84703;-69
2023/12/07 14:14:35;;;;;;;37.15;22.50;;;23.10;37.20;;;;;;6162402;28;83267;-69
2023/12/07 14:17:38;;;;;;;36.45;21.60;;;23.10;37.10;;;;;;6171799;28;84141;-60
2023/12/07 14:20:39;;;;;;;40.28;21.38;;;23.10;37.10;;;;;;6171203;28;82995;-61
2023/12/07 14:23:39;;;;;;;35.25;23.00;;;23.10;36.90;;;;;;6171465;28;83693;-61
2023/12/07 14:26:40;;;;;;;34.03;21.77;;;23.10;36.90;;;;;;6172020;28;82904;-60
2023/12/07 14:29:41;;;;;;;36.17;22.10;;;23.10;36.90;;;;;;6169298;28;83287;-58
2023/12/07 14:32:43;;;;;;;36.58;21.10;;;23.10;36.90;;;;;;6168930;28;83028;-56
2023/12/07 14:35:44;;;;;;;38.55;23.65;;;23.10;36.90;;;;;;6170709;28;83270;-60
2023/12/07 14:38:44;;;;;;;43.17;22.05;;;23.10;36.70;;;;;;6172420;28;83689;-60
2023/12/07 14:41:46;;;;;;;38.92;23.23;;;23.10;36.80;;;;;;6171046;28;83272;-60
2023/12/07 14:44:48;;;;;;;37.85;22.80;;;23.10;36.90;;;;;;6163390;28;83428;-60
2023/12/07 14:47:48;;;;;;;44.90;22.85;;;23.10;36.80;;;;;;6172750;28;84037;-60
2023/12/07 14:50:49;;;;;;;40.38;23.05;;;23.10;37.00;;;;;;6173263;28;83293;-60
2023/12/07 14:53:49;;;;;;;39.42;23.42;;;23.10;37.20;;;;;;6173353;28;83431;-63
2023/12/07 14:56:50;;;;;;;40.85;23.77;;;23.10;37.40;;;;;;6172494;28;83135;-66
2023/12/07 14:59:53;;;;;;;36.35;22.77;;;23.10;37.50;;;;;;6170477;28;83685;-63
2023/12/07 15:02:53;;;;;;;40.55;23.52;;;23.10;37.50;;;;;;6172976;28;83819;-63
2023/12/07 15:05:54;;;;;;;38.03;22.23;;;23.10;37.40;;;;;;6171904;28;83171;-63
2023/12/07 15:08:56;;;;;;;39.20;22.95;;;23.10;37.40;;;;;;6171133;28;83168;-62
2023/12/07 15:11:56;;;;;;;38.08;21.30;;;23.10;37.20;;;;;;6171653;28;82945;-68
2023/12/07 15:14:57;;;;;;;38.40;22.55;;;23.10;37.20;;;;;;6168093;28;85480;-66
2023/12/07 15:17:58;;;;;;;39.72;24.13;;;23.10;37.10;;;;;;6171912;28;82953;-71